Time;durP1;ratioP1;P1;durP2;ratioP2;P2;SDS_P1;SDS_P2;PMS_P1;PMS_P2;Temp;Humidity;BMP_temperature;BMP_pressure;BME280_temperature;BME280_humidity;BME280_pressure;Samples;Min_cycle;Max_cycle;Signal;HPM_P1;HPM_P2
2022/03/31 00:00:30;;;;;;;21.37;19.10;;;5.00;95.50;;;3.48;90.33;96271.50;5006368;28;20470;-77
2022/03/31 00:02:58;;;;;;;22.10;18.50;;;5.00;94.00;;;3.53;90.88;96260.19;5006935;28;20934;-78
2022/03/31 00:05:26;;;;;;;20.10;17.80;;;5.00;95.60;;;3.69;89.53;96265.03;5006747;28;20555;-78
2022/03/31 00:07:56;;;;;;;20.53;18.37;;;5.10;93.90;;;3.46;90.09;96262.09;5021370;28;21205;-74
2022/03/31 00:10:28;;;;;;;18.83;16.83;;;5.00;94.00;;;3.59;90.44;96259.38;5005831;28;20605;-76
2022/03/31 00:12:57;;;;;;;19.73;17.63;;;5.00;94.80;;;3.54;90.36;96264.50;5005410;28;20480;-76
2022/03/31 00:15:26;;;;;;;20.90;18.70;;;5.00;94.40;;;3.60;90.32;96261.00;5002200;28;20566;-75
2022/03/31 00:17:53;;;;;;;19.77;17.67;;;5.00;94.60;;;3.71;89.18;96261.34;5006678;28;20548;-74
2022/03/31 00:20:22;;;;;;;18.47;15.43;;;5.10;93.80;;;3.73;89.19;96259.28;5007806;28;20917;-77
2022/03/31 00:22:49;;;;;;;21.03;18.03;;;5.10;93.30;;;3.67;89.86;96256.44;4997959;28;20582;-74
2022/03/31 00:25:16;;;;;;;20.70;18.47;;;5.10;93.70;;;3.52;90.17;96255.91;5003307;28;20464;-77
2022/03/31 00:27:43;;;;;;;20.83;18.27;;;5.00;94.20;;;3.49;90.10;96237.63;5003401;28;20510;-75
2022/03/31 00:30:15;;;;;;;20.70;17.33;;;5.10;94.10;;;3.58;90.58;96247.03;5003596;28;20473;-80
2022/03/31 00:32:43;;;;;;;21.97;17.00;;;5.00;94.60;;;3.67;89.95;96243.06;5009602;28;20458;-79
2022/03/31 00:35:13;;;;;;;21.30;18.33;;;5.10;94.70;;;3.66;89.82;96244.09;5002176;28;20454;-79
2022/03/31 00:37:42;;;;;;;22.03;18.90;;;5.10;94.30;;;3.61;90.18;96230.59;4998232;28;20503;-74
2022/03/31 00:40:11;;;;;;;20.27;17.60;;;5.10;94.30;;;3.38;91.61;96237.28;5003756;28;20482;-77
2022/03/31 00:42:42;;;;;;;21.70;19.13;;;4.90;95.20;;;3.28;92.50;96242.28;5017186;28;20477;-75
2022/03/31 00:45:15;;;;;;;21.77;19.37;;;4.80;96.70;;;3.25;92.41;96232.00;5026514;28;20572;-75
2022/03/31 00:47:42;;;;;;;20.40;18.30;;;4.70;96.60;;;3.48;92.16;96228.00;5008286;28;20557;-77
2022/03/31 00:50:11;;;;;;;22.77;20.37;;;4.80;97.90;;;3.43;91.58;96238.50;4998701;28;20463;-76
2022/03/31 00:52:39;;;;;;;22.90;18.80;;;4.90;96.20;;;3.37;92.39;96214.28;5003683;28;20560;-77
2022/03/31 00:55:10;;;;;;;21.40;19.10;;;4.80;97.90;;;3.78;89.59;96214.84;5004653;28;20534;-78
2022/03/31 00:57:38;;;;;;;20.83;18.47;;;5.10;95.10;;;3.73;89.89;96212.00;5017621;28;20454;-77
2022/03/31 01:00:10;;;;;;;21.73;19.33;;;5.20;93.60;;;3.50;90.70;96213.41;5002860;28;20543;-78
2022/03/31 01:02:39;;;;;;;21.20;18.97;;;5.00;94.30;;;3.60;91.73;96220.94;5002679;28;20507;-79
2022/03/31 01:05:07;;;;;;;23.50;20.30;;;5.00;97.10;;;3.59;91.12;96224.66;5002552;28;20474;-76
2022/03/31 01:07:35;;;;;;;21.20;18.63;;;5.00;95.80;;;3.68;90.99;96214.53;5003978;28;20469;-75
2022/03/31 01:10:03;;;;;;;22.50;19.70;;;5.10;95.60;;;3.45;91.71;96215.06;4999803;28;21085;-78
2022/03/31 01:12:31;;;;;;;21.47;18.73;;;5.00;95.20;;;3.46;92.40;96200.69;5021037;28;20478;-78
2022/03/31 01:15:10;;;;;;;22.60;18.97;;;5.00;97.20;;;3.57;91.96;96202.69;5006655;28;20573;-77
2022/03/31 01:17:39;;;;;;;22.40;19.23;;;5.00;98.10;;;3.48;91.64;96193.28;5006411;28;20458;-78
2022/03/31 01:20:10;;;;;;;22.53;19.60;;;5.00;97.20;;;3.62;91.96;96196.66;5008481;28;20458;-76
2022/03/31 01:22:37;;;;;;;22.83;20.37;;;5.00;97.20;;;3.62;91.72;96192.16;5008845;28;20594;-78
2022/03/31 01:25:08;;;;;;;21.40;19.03;;;5.10;96.10;;;3.57;91.95;96200.00;5003035;28;20542;-76
2022/03/31 01:27:37;;;;;;;22.87;19.70;;;5.00;96.90;;;3.63;92.78;96196.47;5001437;28;20993;-77
2022/03/31 01:30:07;;;;;;;23.30;20.73;;;5.00;98.50;;;3.85;90.80;96197.97;5007500;28;21003;-79
2022/03/31 01:32:34;;;;;;;24.40;21.40;;;5.10;96.70;;;3.75;91.21;96190.44;5005695;28;20478;-81
2022/03/31 01:35:01;;;;;;;24.60;20.23;;;5.10;96.20;;;3.54;92.19;96187.06;5003993;28;20460;-74
2022/03/31 01:37:28;;;;;;;23.90;20.07;;;5.00;96.90;;;3.51;92.58;96196.34;5008426;28;20447;-80
2022/03/31 01:39:55;;;;;;;24.90;19.80;;;4.90;98.90;;;3.66;92.50;96196.03;5009266;28;20450;-77
2022/03/31 01:42:24;;;;;;;24.60;20.30;;;5.00;98.50;;;3.70;91.46;96188.41;5014806;28;20587;-77
2022/03/31 01:44:51;;;;;;;27.10;22.63;;;5.10;96.70;;;3.42;91.22;96124.72;5007421;28;21050;-79
2022/03/31 01:47:18;;;;;;;22.27;19.87;;;5.10;97.00;;;3.68;91.86;96177.94;5005268;28;20491;-78
2022/03/31 01:49:45;;;;;;;29.00;21.93;;;5.10;96.80;;;3.56;93.01;96184.19;5017282;28;20461;-77
2022/03/31 01:52:12;;;;;;;24.67;21.17;;;5.00;98.50;;;3.48;93.29;96178.06;5006774;28;20456;-78
2022/03/31 01:54:41;;;;;;;27.73;21.67;;;5.00;98.80;;;3.58;92.67;96185.63;5004709;28;20618;-78
2022/03/31 01:57:08;;;;;;;23.20;20.70;;;5.00;99.70;;;3.60;93.21;96175.53;5017795;28;20453;-75
2022/03/31 01:59:41;;;;;;;22.63;20.20;;;5.00;99.50;;;3.69;92.63;96176.88;5007368;28;20512;-76
2022/03/31 02:02:09;;;;;;;22.60;19.57;;;5.10;99.80;;;3.62;92.35;96173.47;5016543;28;20543;-76
2022/03/31 02:04:36;;;;;;;22.97;20.40;;;5.10;98.40;;;3.46;93.47;96152.63;5003533;28;20524;-77
2022/03/31 02:07:03;;;;;;;23.63;19.87;;;5.10;99.60;;;3.40;94.18;96173.78;5008428;28;20475;-76
2022/03/31 02:09:30;;;;;;;25.03;21.20;;;4.90;99.80;;;3.32;95.03;96171.41;4989184;28;20476;-76
2022/03/31 02:11:58;;;;;;;25.10;20.87;;;4.80;99.90;;;3.24;95.96;96176.97;5014538;28;20554;-78
2022/03/31 02:14:25;;;;;;;24.20;21.40;;;4.70;99.90;;;2.92;95.58;96127.06;5002396;28;20466;-79
2022/03/31 02:16:55;;;;;;;29.03;22.73;;;4.70;99.90;;;3.18;96.63;96172.50;5002324;28;20462;-76
2022/03/31 02:19:24;;;;;;;28.17;22.23;;;4.70;99.90;;;3.23;95.75;96167.31;5001237;28;20461;-76
2022/03/31 02:21:51;;;;;;;28.53;23.90;;;4.70;99.90;;;3.22;96.56;96160.34;5004853;28;20477;-77
2022/03/31 02:24:18;;;;;;;28.93;22.10;;;4.70;99.90;;;3.43;96.01;96158.41;5001878;28;20488;-81
2022/03/31 02:26:47;;;;;;;28.10;22.00;;;4.80;99.90;;;3.27;96.00;96157.88;5002698;28;20480;-80
2022/03/31 02:29:14;;;;;;;27.10;23.97;;;4.70;99.90;;;3.20;96.37;96149.09;5004027;28;20468;-76
2022/03/31 02:31:41;;;;;;;28.67;22.27;;;4.70;99.90;;;3.04;97.33;96148.56;5006449;28;20691;-77
2022/03/31 02:34:10;;;;;;;28.97;23.60;;;4.60;99.90;;;3.01;97.45;96151.66;5001357;28;20458;-78
2022/03/31 02:36:37;;;;;;;26.10;21.57;;;4.50;99.90;;;3.18;97.01;96148.47;5006119;28;20507;-80
2022/03/31 02:39:04;;;;;;;30.30;23.37;;;4.60;99.90;;;3.06;97.53;96146.47;5006110;28;20917;-76
2022/03/31 02:41:31;;;;;;;29.13;22.73;;;4.50;99.90;;;3.02;97.69;96145.28;5006369;28;20483;-80
2022/03/31 02:43:58;;;;;;;27.30;22.00;;;4.50;99.90;;;3.03;98.54;96138.91;5007683;28;21189;-77
2022/03/31 02:46:28;;;;;;;27.07;22.80;;;4.50;99.90;;;3.00;98.41;96141.19;5007205;28;20524;-79
2022/03/31 02:48:56;;;;;;;30.97;23.20;;;4.50;99.90;;;2.99;98.65;96132.38;5004664;28;20484;-79
2022/03/31 02:51:26;;;;;;;32.37;26.50;;;4.50;99.90;;;3.03;98.56;96122.06;5004941;28;20517;-78
2022/03/31 02:56:39;;;;;;;32.30;24.10;;;4.60;99.90;;;3.18;98.45;96124.47;5001988;28;20493;-74
2022/03/31 02:59:08;;;;;;;29.53;23.73;;;4.60;99.90;;;3.18;98.55;96124.47;5005222;28;20457;-74
2022/03/31 03:01:35;;;;;;;28.63;22.10;;;4.60;99.90;;;3.11;99.10;96136.00;5006333;28;20831;-75
2022/03/31 03:04:02;;;;;;;32.40;24.87;;;4.60;99.90;;;3.13;99.20;96126.97;5000953;28;20578;-76
2022/03/31 03:06:30;;;;;;;31.73;24.90;;;4.60;99.90;;;3.11;98.75;96127.16;5002829;28;20591;-74
2022/03/31 03:08:57;;;;;;;34.30;24.63;;;4.60;99.90;;;3.34;98.54;96118.59;5006688;28;20495;-78
2022/03/31 03:11:24;;;;;;;34.33;26.17;;;4.70;99.90;;;3.36;96.90;96115.72;5005858;28;20492;-75
2022/03/31 03:13:51;;;;;;;34.17;25.27;;;4.80;99.90;;;3.31;97.46;96112.88;5004365;28;20457;-77
2022/03/31 03:16:19;;;;;;;32.10;25.20;;;4.70;99.90;;;3.01;98.63;96092.94;5015448;28;20454;-78
2022/03/31 03:18:46;;;;;;;35.33;25.93;;;4.60;99.90;;;3.25;97.84;96106.53;5001497;28;20564;-78
2022/03/31 03:21:13;;;;;;;31.80;24.23;;;4.70;99.90;;;3.11;98.61;96101.31;5017486;28;20454;-76
2022/03/31 03:23:42;;;;;;;31.53;22.67;;;4.70;99.90;;;3.04;99.62;96091.72;5000708;28;20996;-76
2022/03/31 03:26:09;;;;;;;36.63;26.20;;;4.60;99.90;;;3.14;100.00;96093.91;5004464;28;20465;-75
2022/03/31 03:28:37;;;;;;;36.40;27.47;;;4.60;99.90;;;3.28;99.22;96087.44;5004313;28;20456;-76
2022/03/31 03:31:04;;;;;;;34.20;25.47;;;4.60;99.90;;;3.09;98.48;96036.63;5006030;28;20909;-73
2022/03/31 03:33:32;;;;;;;36.13;27.40;;;4.80;99.90;;;3.32;98.81;96088.63;5008970;28;20470;-77
2022/03/31 03:36:00;;;;;;;35.27;25.13;;;4.80;99.90;;;3.31;97.54;96065.66;5013503;28;20471;-77
2022/03/31 03:38:27;;;;;;;34.30;25.80;;;4.90;99.90;;;3.10;97.34;96022.25;5020297;28;20570;-76
2022/03/31 03:40:56;;;;;;;33.20;24.20;;;4.90;99.90;;;3.47;97.33;96082.16;5024660;28;21210;-79
2022/03/31 03:43:22;;;;;;;32.10;25.07;;;4.90;99.90;;;3.02;98.58;96037.72;5005369;28;21006;-77
2022/03/31 03:45:50;;;;;;;35.83;26.77;;;4.80;99.90;;;2.79;98.90;96015.09;5019590;28;20515;-75
2022/03/31 03:48:17;;;;;;;34.60;25.47;;;4.70;99.90;;;3.20;99.84;96080.53;5009207;28;20927;-78
2022/03/31 03:50:44;;;;;;;34.07;25.77;;;4.70;99.90;;;3.28;99.52;96071.44;5002413;28;20477;-76
2022/03/31 03:53:12;;;;;;;37.50;26.67;;;4.70;99.90;;;3.11;99.65;96071.97;4999572;28;20593;-78
2022/03/31 03:55:39;;;;;;;39.83;27.53;;;4.60;99.90;;;3.09;100.00;96079.34;5012544;28;20571;-79
2022/03/31 03:58:08;;;;;;;37.27;26.57;;;4.60;99.90;;;2.78;100.00;96026.81;5002496;28;20532;-79
2022/03/31 04:00:35;;;;;;;39.27;28.73;;;4.50;99.90;;;3.07;100.00;96064.59;5000328;28;20456;-78
2022/03/31 04:03:02;;;;;;;48.07;28.43;;;4.50;99.90;;;3.41;99.27;96067.84;5002170;28;20474;-78
2022/03/31 04:05:29;;;;;;;41.00;26.67;;;4.80;99.90;;;3.36;98.96;96067.69;5010711;28;20469;-79
2022/03/31 04:07:56;;;;;;;37.00;26.63;;;4.80;99.90;;;3.44;99.09;96066.59;5011700;28;20459;-79
2022/03/31 04:10:23;;;;;;;33.20;24.33;;;4.80;99.90;;;3.25;99.93;96066.50;5000965;28;21141;-76
2022/03/31 04:12:50;;;;;;;38.97;28.00;;;4.70;99.90;;;3.40;99.00;96063.53;5003754;28;20469;-80
2022/03/31 04:15:19;;;;;;;40.30;26.97;;;4.80;99.90;;;3.52;98.92;96066.31;5016763;28;20462;-73
2022/03/31 04:17:46;;;;;;;34.50;26.00;;;4.90;99.90;;;3.53;98.86;96062.59;5003691;28;20983;-77
2022/03/31 04:20:14;;;;;;;36.73;24.70;;;4.90;99.90;;;3.46;98.07;96059.19;5000620;28;20528;-78
2022/03/31 04:22:42;;;;;;;36.97;27.13;;;4.90;99.90;;;3.42;98.71;96060.66;5004682;28;20977;-82
2022/03/31 04:25:12;;;;;;;41.23;29.43;;;4.90;99.90;;;3.44;99.34;96058.56;4997410;28;20481;-81
2022/03/31 04:27:40;;;;;;;35.20;27.23;;;4.90;99.90;;;3.45;99.59;96055.66;5003078;28;20548;-76
2022/03/31 04:30:10;;;;;;;42.43;27.63;;;4.90;99.90;;;3.45;100.00;96058.34;5001600;28;20585;-78
2022/03/31 04:32:40;;;;;;;43.40;29.33;;;4.90;99.90;;;3.35;100.00;96066.84;5021005;28;20554;-75
2022/03/31 04:35:10;;;;;;;42.10;29.03;;;4.80;99.90;;;3.33;100.00;96063.56;4999440;28;20461;-79
2022/03/31 04:37:38;;;;;;;41.87;28.57;;;4.80;99.90;;;3.18;100.00;96068.41;5002102;28;20565;-77
2022/03/31 04:40:07;;;;;;;40.20;28.83;;;4.70;99.90;;;3.30;100.00;96065.84;5001144;28;20967;-73
2022/03/31 04:42:35;;;;;;;42.90;28.17;;;4.70;99.90;;;3.43;100.00;96064.97;5005009;28;20490;-73
2022/03/31 04:45:03;;;;;;;40.53;27.60;;;4.80;99.90;;;3.50;100.00;96058.53;5003515;28;20577;-73
2022/03/31 04:47:31;;;;;;;41.07;29.10;;;4.90;99.90;;;3.57;100.00;96062.97;5002239;28;21048;-73
2022/03/31 04:50:00;;;;;;;42.40;28.00;;;5.00;99.90;;;3.59;99.96;96056.41;5024508;28;20754;-75
2022/03/31 04:52:27;;;;;;;41.50;28.73;;;5.00;99.90;;;3.48;99.85;96059.78;5004209;28;21037;-74
2022/03/31 04:54:54;;;;;;;38.30;26.43;;;5.00;99.90;;;3.43;100.00;96062.28;5020537;28;20460;-74
2022/03/31 04:57:21;;;;;;;42.33;28.80;;;4.90;99.90;;;3.33;100.00;96057.41;5004194;28;20466;-74
2022/03/31 04:59:49;;;;;;;44.83;30.33;;;4.90;99.90;;;3.62;100.00;96060.47;5005194;28;20460;-74
2022/03/31 05:02:18;;;;;;;45.27;29.70;;;5.00;99.90;;;3.64;99.53;96064.56;5020327;28;21044;-80
2022/03/31 05:04:45;;;;;;;43.10;28.77;;;5.00;99.90;;;3.68;98.75;96052.38;5003620;28;20474;-73
2022/03/31 05:07:14;;;;;;;43.27;29.47;;;5.10;99.90;;;3.70;98.64;96057.53;5008558;28;20465;-78
2022/03/31 05:09:42;;;;;;;43.90;30.13;;;5.10;99.90;;;4.00;99.42;96066.69;5002370;28;20517;-77
2022/03/31 05:12:12;;;;;;;41.70;28.27;;;5.20;99.90;;;3.91;98.88;96064.31;5000876;28;21025;-70
2022/03/31 05:14:40;;;;;;;46.07;31.13;;;5.30;99.90;;;3.95;98.51;96065.50;5001720;28;21056;-74
2022/03/31 05:17:07;;;;;;;42.70;30.10;;;5.30;99.90;;;3.87;98.39;96063.13;5021379;28;20466;-73
2022/03/31 05:19:35;;;;;;;44.47;30.57;;;5.40;99.90;;;4.16;98.17;96066.09;5007841;28;21004;-72
2022/03/31 05:22:02;;;;;;;46.03;31.10;;;5.50;99.90;;;4.18;97.64;96063.22;5002284;28;20498;-75
2022/03/31 05:24:30;;;;;;;46.00;30.43;;;5.60;99.90;;;3.99;96.80;96073.06;4996055;28;20475;-74
2022/03/31 05:26:57;;;;;;;48.23;31.40;;;5.50;99.90;;;3.99;98.04;96070.38;5002852;28;20577;-72
2022/03/31 05:29:24;;;;;;;40.87;30.20;;;5.40;99.90;;;3.89;98.48;96069.06;5002734;28;20540;-72
2022/03/31 05:31:52;;;;;;;42.20;28.97;;;5.40;99.90;;;3.98;97.94;96058.91;4999840;28;20509;-73
2022/03/31 05:34:21;;;;;;;46.97;31.93;;;5.40;99.90;;;4.05;97.18;96073.00;4997239;28;20968;-71
2022/03/31 05:36:48;;;;;;;43.67;29.97;;;5.40;99.90;;;4.37;97.13;96064.03;5004639;28;21055;-71
2022/03/31 05:39:16;;;;;;;41.57;28.23;;;5.60;99.90;;;4.20;95.81;96053.94;4998596;28;20839;-70
2022/03/31 05:41:44;;;;;;;40.80;29.00;;;5.60;99.90;;;4.11;96.52;96053.41;5000607;28;20506;-70
2022/03/31 05:44:11;;;;;;;44.47;30.40;;;5.50;99.90;;;4.04;96.17;96058.00;5004675;28;20549;-72
2022/03/31 05:46:38;;;;;;;40.50;28.30;;;5.50;99.90;;;4.03;96.45;96055.56;4994909;28;20486;-69
2022/03/31 05:49:05;;;;;;;41.20;29.00;;;5.50;99.90;;;4.12;96.00;96046.19;4999607;28;20949;-71
2022/03/31 05:51:32;;;;;;;43.83;29.47;;;5.50;99.90;;;4.16;96.09;96054.59;5000044;28;20467;-70
2022/03/31 05:54:01;;;;;;;42.60;29.90;;;5.50;99.90;;;4.18;96.87;96057.88;5004056;28;20472;-71
2022/03/31 05:56:28;;;;;;;43.30;28.63;;;5.60;99.90;;;4.24;96.09;96054.28;4998281;28;20589;-73
2022/03/31 05:58:57;;;;;;;43.70;32.35;;;5.60;99.90;;;4.35;95.66;96058.09;5002613;28;20455;-72
2022/03/31 06:01:24;;;;;;;39.33;28.73;;;5.70;99.90;;;4.15;95.46;96058.31;4995790;28;20301;-71
2022/03/31 06:03:51;;;;;;;44.00;29.00;;;5.60;99.90;;;4.41;94.81;96056.38;5006596;28;20583;-70
2022/03/31 06:06:17;;;;;;;41.30;29.20;;;5.70;99.90;;;4.14;94.25;96033.44;5022794;28;20498;-71
2022/03/31 06:08:45;;;;;;;38.40;27.70;;;5.70;99.90;;;4.15;94.98;96059.13;5006319;28;20505;-72
2022/03/31 06:11:12;;;;;;;41.43;28.47;;;5.60;99.90;;;4.15;95.03;96064.47;5006039;28;20452;-69
2022/03/31 06:13:39;;;;;;;40.10;27.27;;;5.60;99.90;;;4.12;94.86;96064.91;5006094;28;20473;-70
2022/03/31 06:16:07;;;;;;;44.35;35.40;;;5.60;99.90;;;4.05;95.49;96058.84;4998893;28;20542;-83
2022/03/31 06:18:34;;;;;;;39.23;29.37;;;5.50;99.90;;;4.21;95.07;96065.44;4992051;28;20208;-74
2022/03/31 06:21:02;;;;;;;37.43;28.70;;;5.50;99.90;;;4.12;95.01;96054.22;5001968;28;20805;-72
2022/03/31 06:23:29;;;;;;;40.60;27.73;;;5.60;99.90;;;4.06;94.87;96047.09;5001489;28;20458;-74
2022/03/31 06:25:57;;;;;;;38.67;27.93;;;5.60;99.90;;;4.20;95.36;96059.28;5007497;28;20456;-75
2022/03/31 06:28:28;;;;;;;40.43;27.93;;;5.60;99.90;;;4.27;94.91;96055.72;5006719;28;20471;-73
2022/03/31 06:30:56;;;;;;;36.00;26.33;;;5.60;99.90;;;4.26;95.89;96060.25;5002336;28;20526;-71
2022/03/31 06:33:24;;;;;;;39.43;28.23;;;5.70;99.90;;;4.28;94.57;96060.84;5001689;28;20544;-75
2022/03/31 06:35:51;;;;;;;39.07;28.50;;;5.70;99.90;;;4.28;94.83;96049.31;5011515;28;20450;-75
2022/03/31 06:38:18;;;;;;;39.67;27.53;;;5.70;99.90;;;4.39;94.52;96057.41;5004376;28;20478;-72
2022/03/31 06:41:06;;;;;;;38.23;27.73;;;5.80;99.90;;;4.38;94.58;96050.41;5002184;28;20547;-71
2022/03/31 06:43:33;;;;;;;36.90;26.13;;;5.80;99.90;;;4.40;94.53;96055.56;5001925;28;20462;-73
2022/03/31 06:46:00;;;;;;;36.00;25.40;;;5.80;99.90;;;4.51;93.37;96051.31;4998167;28;20478;-73
2022/03/31 06:48:30;;;;;;;36.73;26.17;;;5.90;99.00;;;4.53;92.93;96049.22;5004178;28;21068;-75
2022/03/31 06:50:58;;;;;;;35.80;26.43;;;5.90;98.70;;;4.63;93.25;96049.50;5003144;28;20505;-74
2022/03/31 06:53:28;;;;;;;38.63;26.17;;;6.00;98.70;;;4.58;92.92;96045.88;5012589;28;20494;-73
2022/03/31 06:55:55;;;;;;;38.73;27.37;;;6.00;99.30;;;4.75;92.27;96052.22;5004843;28;20487;-74
2022/03/31 06:58:25;;;;;;;34.07;25.73;;;6.10;97.60;;;4.75;92.10;96046.88;4977973;28;20975;-73
2022/03/31 07:00:52;;;;;;;37.87;26.40;;;6.10;98.20;;;4.48;91.96;96041.88;4998856;28;20845;-74
2022/03/31 07:03:20;;;;;;;32.67;24.80;;;6.10;96.10;;;4.68;92.30;96051.50;4998826;28;20523;-69
2022/03/31 07:05:48;;;;;;;34.30;23.10;;;6.10;96.40;;;4.94;91.09;96044.16;5019896;28;20489;-72
2022/03/31 07:08:15;;;;;;;37.27;25.60;;;6.20;96.60;;;5.01;90.98;96044.06;5004502;28;20500;-73
2022/03/31 07:10:43;;;;;;;35.50;26.90;;;6.30;96.40;;;4.80;91.24;96052.38;5003608;28;20478;-72
2022/03/31 07:13:10;;;;;;;32.27;24.50;;;6.30;94.30;;;4.81;90.37;96035.28;5002566;28;20552;-70
2022/03/31 07:15:37;;;;;;;30.83;23.33;;;6.30;94.10;;;4.66;90.44;96041.03;5002204;28;20474;-74
2022/03/31 07:18:05;;;;;;;36.50;27.77;;;6.20;94.10;;;4.46;91.65;96040.47;5000792;28;20545;-73
2022/03/31 07:20:33;;;;;;;34.47;25.73;;;6.00;94.80;;;4.51;90.88;96045.97;5002939;28;20906;-72
2022/03/31 07:23:03;;;;;;;38.50;27.77;;;6.00;95.70;;;4.66;91.69;96050.91;5004603;28;20546;-76
2022/03/31 07:25:30;;;;;;;36.37;26.77;;;6.10;96.10;;;4.70;91.49;96054.78;5000452;28;20481;-75
2022/03/31 07:27:57;;;;;;;35.57;24.17;;;6.10;96.00;;;4.70;90.68;96049.41;5010503;28;20486;-70
2022/03/31 07:30:26;;;;;;;34.83;25.90;;;6.10;95.40;;;4.53;90.73;96023.31;5027002;28;20445;-71
2022/03/31 07:32:55;;;;;;;33.60;25.47;;;6.10;94.30;;;4.87;90.49;96043.44;5019231;28;20816;-69
2022/03/31 07:35:26;;;;;;;30.53;23.63;;;6.30;94.60;;;4.99;90.44;96048.81;5035647;28;20461;-69
2022/03/31 07:37:55;;;;;;;34.73;24.93;;;6.40;94.70;;;5.09;90.98;96046.41;5028340;28;20445;-71
2022/03/31 07:40:26;;;;;;;28.97;22.10;;;6.40;95.00;;;5.26;88.41;96051.94;5016335;28;20464;-69
2022/03/31 07:42:54;;;;;;;30.13;23.37;;;6.60;93.10;;;5.20;89.89;96052.84;5024536;28;20461;-69
2022/03/31 07:45:22;;;;;;;30.63;23.23;;;6.50;94.10;;;5.48;88.43;96038.81;5006671;28;20479;-74
2022/03/31 07:47:52;;;;;;;27.23;22.50;;;6.70;93.40;;;5.36;87.24;96052.16;4998776;28;20552;-74
2022/03/31 07:50:20;;;;;;;28.93;22.93;;;6.70;92.00;;;5.50;87.38;96041.25;4998345;28;20459;-71
2022/03/31 07:52:47;;;;;;;27.80;22.00;;;6.90;91.90;;;5.78;85.38;96042.44;5017681;28;20476;-73
2022/03/31 07:55:17;;;;;;;27.87;21.70;;;7.10;90.40;;;5.75;86.41;96037.53;5000991;28;20542;-68
2022/03/31 07:57:46;;;;;;;27.93;21.80;;;7.10;90.90;;;5.82;85.41;96039.06;5000295;28;20463;-70
2022/03/31 08:00:15;;;;;;;21.93;18.47;;;7.20;90.00;;;5.87;83.92;96041.03;5002531;28;20890;-69
2022/03/31 08:02:43;;;;;;;25.70;20.90;;;7.30;87.60;;;5.86;84.23;96034.03;5000942;28;20500;-72
2022/03/31 08:05:11;;;;;;;27.40;21.20;;;7.20;89.50;;;6.20;82.77;96028.91;5003695;28;20627;-70
2022/03/31 08:07:39;;;;;;;23.23;19.30;;;7.50;87.60;;;6.29;81.57;96031.19;5002993;28;20540;-71
2022/03/31 08:10:08;;;;;;;26.63;19.20;;;7.60;85.00;;;6.18;82.05;96035.53;4994673;28;20842;-68
2022/03/31 08:12:36;;;;;;;28.40;21.57;;;7.60;85.10;;;6.26;81.17;96037.03;5002341;28;20486;-70
2022/03/31 08:15:06;;;;;;;24.57;20.77;;;7.70;84.70;;;6.17;82.64;96024.00;4998142;28;20465;-69
2022/03/31 08:17:33;;;;;;;24.20;19.27;;;7.60;85.80;;;6.49;80.93;96020.91;4992824;28;20557;-70
2022/03/31 08:20:01;;;;;;;22.47;18.03;;;7.80;84.50;;;6.82;80.32;96025.78;4998758;28;20557;-70
2022/03/31 08:22:28;;;;;;;20.50;18.30;;;8.00;85.10;;;6.98;78.89;96011.59;4993522;28;20826;-70
2022/03/31 08:24:56;;;;;;;22.63;17.87;;;8.30;83.40;;;7.00;77.33;96008.69;4996838;28;21036;-70
2022/03/31 08:27:23;;;;;;;22.20;18.07;;;8.40;81.50;;;6.45;78.23;96014.38;4991323;28;20874;-70
2022/03/31 08:29:50;;;;;;;21.30;17.70;;;8.10;81.20;;;6.49;79.38;96012.84;4998612;28;20462;-70
2022/03/31 08:32:18;;;;;;;20.77;17.77;;;7.90;82.70;;;6.59;78.88;96019.44;4992711;28;21148;-69
2022/03/31 08:34:45;;;;;;;19.57;17.47;;;8.00;82.40;;;6.39;79.33;96015.31;4991527;28;20449;-70
2022/03/31 08:37:12;;;;;;;19.37;17.20;;;7.90;81.80;;;6.52;79.62;96016.91;5001157;28;20610;-70
2022/03/31 08:39:39;;;;;;;19.67;16.33;;;7.90;83.00;;;6.79;78.46;96010.97;4996590;28;20493;-70
2022/03/31 08:42:07;;;;;;;18.63;16.63;;;8.00;82.80;;;7.07;77.68;96010.16;4999289;28;20455;-69
2022/03/31 08:44:36;;;;;;;19.23;16.97;;;8.30;82.00;;;7.28;76.54;96015.84;4995585;28;20490;-71
2022/03/31 08:47:05;;;;;;;19.00;15.63;;;8.50;81.30;;;7.05;77.50;96012.25;4999628;28;20471;-69
2022/03/31 08:49:36;;;;;;;18.00;15.83;;;8.40;81.30;;;7.14;77.13;96007.31;4991898;28;20490;-70
2022/03/31 08:52:04;;;;;;;17.27;15.30;;;8.50;81.20;;;7.09;76.34;96021.47;4999279;28;20463;-74
2022/03/31 08:54:31;;;;;;;16.70;14.80;;;8.50;80.70;;;7.11;77.74;96005.09;4993969;28;20462;-69
2022/03/31 08:56:58;;;;;;;17.73;14.27;;;8.50;81.70;;;7.29;75.96;96020.16;4997779;28;21228;-70
2022/03/31 08:59:25;;;;;;;17.43;15.40;;;8.60;80.70;;;7.37;75.96;96003.66;4997208;28;21131;-70
2022/03/31 09:01:52;;;;;;;16.40;14.67;;;8.70;80.30;;;7.19;77.11;96002.00;4999611;28;20459;-72
2022/03/31 09:04:21;;;;;;;18.93;14.30;;;8.60;80.90;;;7.04;77.11;96015.97;4990369;28;21830;-70
2022/03/31 09:07:02;;;;;;;18.50;15.03;;;8.50;80.90;;;6.59;77.64;96017.59;4995055;28;20459;-70
2022/03/31 09:09:30;;;;;;;17.07;15.23;;;8.20;80.40;;;6.57;79.46;96021.56;4997728;28;20466;-70
2022/03/31 09:11:57;;;;;;;15.43;13.20;;;8.00;82.30;;;6.82;77.82;96007.81;5004727;28;21027;-71
2022/03/31 09:14:33;;;;;;;16.20;13.63;;;8.10;81.50;;;6.90;77.33;96014.66;4999179;28;20484;-70
2022/03/31 09:17:11;;;;;;;19.00;15.77;;;8.10;81.50;;;6.76;78.06;96014.16;5017411;28;20476;-70
2022/03/31 09:19:38;;;;;;;17.43;13.80;;;8.10;81.30;;;6.19;79.94;96007.66;5014640;28;20500;-69
2022/03/31 09:22:08;;;;;;;19.67;15.90;;;7.80;81.90;;;6.38;80.24;95994.91;4996461;28;20861;-67
2022/03/31 09:24:35;;;;;;;18.70;14.97;;;7.80;83.50;;;6.86;78.87;96000.09;4997871;28;20482;-67
2022/03/31 09:27:04;;;;;;;19.53;15.43;;;8.00;83.10;;;6.27;78.43;95955.53;4998330;28;20463;-67
2022/03/31 09:29:33;;;;;;;18.87;14.97;;;8.00;81.60;;;7.07;77.60;96010.16;4999214;28;20468;-69
2022/03/31 09:32:09;;;;;;;17.27;14.10;;;8.30;81.90;;;7.16;76.91;95997.13;5016772;28;20892;-69
2022/03/31 09:34:43;;;;;;;16.10;14.20;;;8.50;81.50;;;7.28;76.19;95999.75;4996572;28;20494;-70
2022/03/31 09:37:13;;;;;;;16.80;14.30;;;8.60;80.60;;;7.41;76.18;95992.41;5005059;28;20467;-69
2022/03/31 09:39:40;;;;;;;17.20;14.87;;;8.60;80.60;;;7.35;75.51;96004.94;5004155;28;20459;-70
2022/03/31 09:42:12;;;;;;;17.87;14.90;;;8.60;80.00;;;7.14;77.00;95998.44;5017286;28;20455;-70
2022/03/31 09:44:42;;;;;;;16.83;15.07;;;8.50;80.80;;;6.95;76.23;96001.34;5017835;28;20469;-71
2022/03/31 09:47:09;;;;;;;16.13;14.43;;;8.40;80.10;;;6.96;77.07;95997.59;5033103;28;20467;-69
2022/03/31 09:49:36;;;;;;;20.17;14.30;;;8.40;80.80;;;7.06;76.91;95995.09;5009453;28;20580;-69
2022/03/31 09:52:07;;;;;;;17.60;13.57;;;8.40;80.80;;;6.99;76.34;95994.41;5004347;28;20524;-68
2022/03/31 09:54:37;;;;;;;17.47;14.50;;;8.40;80.40;;;6.92;77.50;95991.88;5002876;28;20466;-68
2022/03/31 09:57:07;;;;;;;14.83;13.30;;;8.30;80.80;;;7.07;76.14;95987.84;5003328;28;20458;-69
2022/03/31 09:59:38;;;;;;;16.67;14.30;;;8.40;80.20;;;7.23;75.17;95991.59;5003581;28;20477;-68
2022/03/31 10:02:05;;;;;;;15.03;12.43;;;8.60;79.60;;;7.27;74.88;95984.69;5006954;28;20475;-69
2022/03/31 10:04:34;;;;;;;16.73;12.53;;;8.60;79.30;;;7.12;75.42;95985.22;5001426;28;20833;-69
2022/03/31 10:07:03;;;;;;;17.20;13.20;;;8.60;79.30;;;7.64;73.85;95970.72;5000719;28;20475;-70
2022/03/31 10:09:32;;;;;;;14.53;12.40;;;8.90;79.10;;;8.03;71.68;95950.28;5006042;28;21104;-68
2022/03/31 10:12:11;;;;;;;16.70;13.97;;;9.30;78.50;;;8.28;72.52;95978.56;5001370;28;20463;-70
2022/03/31 10:14:49;;;;;;;17.60;12.90;;;9.50;78.50;;;8.41;71.72;95980.84;4999472;28;21020;-68
2022/03/31 10:17:16;;;;;;;14.63;12.80;;;9.70;77.60;;;8.46;70.70;95978.22;4995015;28;20545;-69
2022/03/31 10:19:46;;;;;;;15.27;13.68;;;9.80;77.20;;;8.01;71.00;95990.06;4997857;28;20556;-68
2022/03/31 10:24:56;;;;;;;14.80;13.10;;;9.10;77.00;;;7.33;74.18;95981.00;5009655;28;20529;-71
2022/03/31 10:27:29;;;;;;;14.93;13.23;;;8.80;77.70;;;7.48;74.14;95983.13;5011363;28;20513;-70